createdAt,value
2019-05-03T00:02:08.545Z,100090.34
2019-05-03T00:07:13.106Z,100104.21
2019-05-03T00:12:17.197Z,100105.06
2019-05-03T00:17:22.015Z,100112.88
2019-05-03T00:22:26.120Z,100099.75
2019-05-03T00:27:32.136Z,100101.95
2019-05-03T00:32:36.107Z,100101.95
2019-05-03T00:37:41.965Z,100115.78
2019-05-03T00:42:46.047Z,100112.80
2019-05-03T00:47:50.108Z,100113.62
2019-05-03T00:52:54.189Z,100120.31
2019-05-03T00:57:58.221Z,100118.13
2019-05-03T01:03:02.598Z,100125.48
2019-05-03T01:08:06.708Z,100123.31
2019-05-03T01:13:12.366Z,100126.31
2019-05-03T01:18:17.886Z,100132.00
2019-05-03T01:23:22.070Z,100145.98
2019-05-03T01:28:26.409Z,100143.81
2019-05-03T01:33:32.142Z,100150.82
2019-05-03T01:38:36.386Z,100157.66
2019-05-03T01:43:41.838Z,100152.82
2019-05-03T01:48:46.034Z,100151.00
2019-05-03T01:53:52.214Z,100158.84
2019-05-03T01:58:56.283Z,100168.17
2019-05-03T02:04:00.304Z,100170.84
2019-05-03T02:09:06.519Z,100174.02
2019-05-03T02:14:12.232Z,100184.69
2019-05-03T02:19:16.515Z,100195.32
2019-05-03T02:24:22.073Z,100199.31
2019-05-03T02:29:26.260Z,100202.48
2019-05-03T02:34:32.717Z,100206.81
2019-05-03T02:39:36.191Z,100212.14
2019-05-03T02:44:40.205Z,100209.63
2019-05-03T02:49:45.597Z,100221.27
2019-05-03T02:54:50.113Z,100216.59
2019-05-03T02:59:54.939Z,100224.36
2019-05-03T03:04:59.515Z,100230.02
2019-05-03T03:10:05.433Z,100243.67
2019-05-03T03:15:10.021Z,100251.44
2019-05-03T03:20:16.136Z,100250.25
2019-05-03T03:25:25.867Z,100251.27
2019-05-03T03:31:18.209Z,100263.67
2019-05-03T03:36:48.583Z,100264.00
2019-05-03T03:41:28.852Z,100275.59
2019-05-03T03:46:36.307Z,100280.83
2019-05-03T03:51:41.171Z,100281.42
2019-05-03T03:56:59.400Z,100289.55
2019-05-03T04:01:56.056Z,100298.98
2019-05-03T04:07:01.482Z,100306.12
2019-05-03T04:12:06.367Z,100308.58
2019-05-03T04:17:10.518Z,100309.16
2019-05-03T04:22:16.448Z,100317.02
2019-05-03T04:27:26.995Z,100318.27
2019-05-03T04:32:29.219Z,100328.64
2019-05-03T04:37:35.976Z,100334.81
2019-05-03T04:42:39.631Z,100337.64
2019-05-03T04:47:46.431Z,100345.99
2019-05-03T04:52:52.737Z,100342.16
2019-05-03T04:58:00.826Z,100350.98
2019-05-03T05:03:06.823Z,100360.55
2019-05-03T05:08:10.849Z,100358.31
2019-05-03T05:13:15.732Z,100358.11
2019-05-03T05:18:20.174Z,100368.70
2019-05-03T05:23:25.120Z,100368.70
2019-05-03T05:28:38.876Z,100387.86
2019-05-03T05:33:44.620Z,100391.23
2019-05-03T05:38:48.819Z,100392.23
2019-05-03T05:43:54.843Z,100390.86
2019-05-03T05:48:58.603Z,100392.70
2019-05-03T05:54:02.592Z,100395.17
2019-05-03T05:59:06.931Z,100416.27
2019-05-03T06:04:11.168Z,100409.27
2019-05-03T06:09:18.133Z,100423.17
2019-05-03T06:14:24.408Z,100408.14
2019-05-03T06:19:28.413Z,100405.53
2019-05-03T06:24:32.509Z,100420.22
2019-05-03T06:29:36.882Z,100422.06
2019-05-03T06:34:40.940Z,100428.34
2019-05-03T06:39:45.487Z,100421.69
2019-05-03T06:44:49.570Z,100422.31
2019-05-03T06:49:55.256Z,100430.70
2019-05-03T06:55:00.252Z,100434.72
2019-05-03T07:00:05.886Z,100436.13
2019-05-03T07:05:10.113Z,100450.52
2019-05-03T07:10:15.023Z,100464.47
2019-05-03T07:15:19.158Z,100461.65
2019-05-03T07:20:25.277Z,100459.91
2019-05-03T07:25:28.901Z,100462.89
2019-05-03T07:30:35.138Z,100461.55
2019-05-03T07:35:38.771Z,100458.03
2019-05-03T07:40:44.581Z,100466.50
2019-05-03T07:45:48.747Z,100461.92
2019-05-03T07:50:54.669Z,100457.09
2019-05-03T07:55:58.673Z,100455.27
2019-05-03T08:01:09.402Z,100442.21
2019-05-03T08:06:09.588Z,100450.03
2019-05-03T08:11:14.463Z,100458.17
2019-05-03T08:16:18.948Z,100451.91
2019-05-03T08:21:25.135Z,100456.69
2019-05-03T08:26:29.173Z,100449.19
2019-05-03T08:31:35.265Z,100468.45
2019-05-03T08:36:39.108Z,100455.52
2019-05-03T08:41:44.386Z,100458.27
2019-05-03T08:46:48.774Z,100466.78
2019-05-03T08:51:54.827Z,100463.19
2019-05-03T08:56:58.527Z,100443.63
2019-05-03T09:02:03.540Z,100453.88
2019-05-03T09:07:08.396Z,100447.14
2019-05-03T09:12:14.479Z,100452.70
2019-05-03T09:17:18.284Z,100433.45
2019-05-03T09:22:22.393Z,100440.54
2019-05-03T09:27:26.439Z,100444.49
2019-05-03T09:32:30.746Z,100439.70
2019-05-03T09:37:35.443Z,100441.05
2019-05-03T09:42:39.620Z,100429.36
2019-05-03T09:47:44.844Z,100427.45
2019-05-03T09:52:48.975Z,100431.45
2019-05-03T09:57:53.032Z,100451.70
2019-05-03T10:02:57.103Z,100441.11
2019-05-03T10:08:01.101Z,100446.48
2019-05-03T10:13:14.573Z,100437.02
2019-05-03T10:18:11.424Z,100439.11
2019-05-03T10:23:15.801Z,100443.47
2019-05-03T10:28:19.947Z,100457.92
2019-05-03T10:33:25.991Z,100443.69
2019-05-03T10:38:30.062Z,100437.72
2019-05-03T10:43:35.512Z,100424.01
2019-05-03T10:48:40.225Z,100440.03
2019-05-03T10:53:45.502Z,100456.58
2019-05-03T10:58:50.354Z,100451.05
2019-05-03T11:03:54.559Z,100446.42
2019-05-03T11:08:58.926Z,100437.54
2019-05-03T11:14:05.231Z,100433.45
2019-05-03T11:19:08.757Z,100433.81
2019-05-03T11:24:14.741Z,100444.05
2019-05-03T11:29:18.472Z,100434.65
2019-05-03T11:34:25.303Z,100430.53
2019-05-03T11:39:28.497Z,100426.87
2019-05-03T11:44:32.940Z,100427.52
2019-05-03T11:49:37.027Z,100424.85
2019-05-03T11:54:41.320Z,100429.64
2019-05-03T11:59:45.378Z,100436.83
2019-05-03T12:04:49.365Z,100418.41
2019-05-03T12:09:54.676Z,100403.64
2019-05-03T12:14:58.818Z,100392.55
2019-05-03T12:20:04.669Z,100402.39
2019-05-03T12:25:10.610Z,100408.81
2019-05-03T12:30:15.469Z,100421.36
2019-05-03T12:35:19.529Z,100423.91
2019-05-03T12:40:25.433Z,100424.99
2019-05-03T12:45:29.734Z,100415.17
2019-05-03T12:50:34.699Z,100420.01
2019-05-03T12:55:39.073Z,100410.46
2019-05-03T13:00:47.947Z,100405.60
2019-05-03T13:05:48.890Z,100397.70
2019-05-03T13:10:52.985Z,100396.83
2019-05-03T13:15:57.470Z,100381.36
2019-05-03T13:21:01.728Z,100389.16
2019-05-03T13:26:06.153Z,100393.58
2019-05-03T13:31:10.746Z,100398.72
2019-05-03T13:36:15.246Z,100387.82
2019-05-03T13:41:19.370Z,100390.16
2019-05-03T13:46:24.668Z,100385.89
2019-05-03T13:51:28.945Z,100380.70
2019-05-03T13:56:35.299Z,100385.14
2019-05-03T14:01:39.484Z,100396.98
2019-05-03T14:06:44.707Z,100378.48
2019-05-03T14:11:48.991Z,100384.75
2019-05-03T14:16:54.760Z,100378.80
2019-05-03T14:21:58.854Z,100375.63
2019-05-03T14:27:03.215Z,100382.42
2019-05-03T14:32:07.666Z,100386.22
2019-05-03T14:37:12.045Z,100391.64
2019-05-03T14:42:16.165Z,100379.34
2019-05-03T14:47:20.395Z,100382.72
2019-05-03T14:52:25.208Z,100380.08
2019-05-03T14:57:30.199Z,100372.59
2019-05-03T15:02:43.550Z,100375.69
2019-05-03T15:07:40.122Z,100381.70
2019-05-03T15:12:45.202Z,100376.25
2019-05-03T15:17:49.467Z,100374.98
2019-05-03T15:22:54.845Z,100374.95
2019-05-03T15:27:59.091Z,100384.22
2019-05-03T15:33:04.974Z,100387.75
2019-05-03T15:38:09.017Z,100386.72
2019-05-03T15:43:14.928Z,100385.62
2019-05-03T15:48:19.395Z,100392.70
2019-05-03T15:53:24.668Z,100407.08
2019-05-03T15:58:29.230Z,100401.59
2019-05-03T16:03:33.386Z,100390.33
2019-05-03T16:08:37.506Z,100393.22
2019-05-03T16:13:41.658Z,100388.02
2019-05-03T16:18:45.774Z,100382.91
2019-05-03T16:23:49.873Z,100383.17
2019-05-03T16:28:55.257Z,100377.58
2019-05-03T16:33:59.825Z,100373.73
2019-05-03T16:39:05.540Z,100361.00
2019-05-03T16:44:10.623Z,100353.24
2019-05-03T16:49:15.682Z,100355.14
2019-05-03T16:54:19.831Z,100363.09
2019-05-03T16:59:24.796Z,100350.09
2019-05-03T17:04:28.993Z,100365.73
2019-05-03T17:09:35.219Z,100351.78
2019-05-03T17:14:39.103Z,100356.52
2019-05-03T17:19:44.678Z,100359.63
2019-05-03T17:24:51.629Z,100355.11
2019-05-03T17:29:55.479Z,100351.76
2019-05-03T17:34:59.831Z,100354.40
2019-05-03T17:40:05.392Z,100357.58
2019-05-03T17:45:09.683Z,100355.10
2019-05-03T17:50:14.816Z,100352.86
2019-05-03T17:55:19.105Z,100357.70
2019-05-03T18:00:23.214Z,100349.66
2019-05-03T18:05:27.435Z,100343.80
2019-05-03T18:10:31.519Z,100335.05
2019-05-03T18:15:35.609Z,100346.91
2019-05-03T18:20:39.779Z,100335.26
2019-05-03T18:25:44.681Z,100354.27
2019-05-03T18:30:49.264Z,100354.27
2019-05-03T18:35:55.041Z,100349.64
2019-05-03T18:40:59.664Z,100344.99
2019-05-03T18:46:04.935Z,100344.99
2019-05-03T18:51:09.370Z,100352.33
2019-05-03T18:56:14.755Z,100366.02
2019-05-03T19:01:19.118Z,100362.53
2019-05-03T19:06:23.336Z,100366.20
2019-05-03T19:11:27.644Z,100362.71
2019-05-03T19:16:31.751Z,100363.03
2019-05-03T19:21:35.979Z,100364.22
2019-05-03T19:26:40.603Z,100361.22
2019-05-03T19:31:45.472Z,100365.22
2019-05-03T19:36:50.416Z,100359.05
2019-05-03T19:41:55.266Z,100352.39
2019-05-03T19:46:59.883Z,100349.55
2019-05-03T19:52:05.197Z,100351.72
2019-05-03T19:57:09.648Z,100362.01
2019-05-03T20:02:15.010Z,100352.33
2019-05-03T20:07:21.608Z,100351.65
2019-05-03T20:12:26.225Z,100346.50
2019-05-03T20:17:30.696Z,100339.98
2019-05-03T20:22:35.230Z,100340.48
2019-05-03T20:27:39.504Z,100336.14
2019-05-03T20:32:45.172Z,100330.66
2019-05-03T20:37:49.358Z,100335.98
2019-05-03T20:42:54.376Z,100331.80
2019-05-03T20:47:58.786Z,100333.45
2019-05-03T20:53:05.380Z,100327.73
2019-05-03T20:58:11.440Z,100325.40
2019-05-03T21:03:15.752Z,100321.06
2019-05-03T21:08:19.903Z,100316.41
2019-05-03T21:13:26.357Z,100314.09
2019-05-03T21:18:29.755Z,100318.39
2019-05-03T21:23:34.460Z,100314.89
2019-05-03T21:28:38.682Z,100320.56
2019-05-03T21:33:44.511Z,100318.94
2019-05-03T21:38:48.626Z,100320.58
2019-05-03T21:43:54.535Z,100319.58
2019-05-03T21:48:58.650Z,100318.25
2019-05-03T21:54:02.731Z,100308.76
2019-05-03T21:59:07.191Z,100312.57
2019-05-03T22:04:11.630Z,100314.53
2019-05-03T22:09:15.620Z,100308.36
2019-05-03T22:14:19.668Z,100299.52
2019-05-03T22:19:25.062Z,100300.90
2019-05-03T22:24:29.696Z,100304.19
2019-05-03T22:29:35.531Z,100297.66
2019-05-03T22:34:39.464Z,100302.00
2019-05-03T22:39:45.485Z,100298.14
2019-05-03T22:44:49.339Z,100303.47
2019-05-03T22:49:54.743Z,100292.81
2019-05-03T22:54:59.021Z,100289.82
2019-05-03T23:00:06.076Z,100286.32
2019-05-03T23:05:09.498Z,100263.51
2019-05-03T23:10:14.811Z,100252.32
2019-05-03T23:15:19.492Z,100259.31
2019-05-03T23:20:25.343Z,100261.25
2019-05-03T23:25:30.794Z,100266.23
2019-05-03T23:30:35.263Z,100258.94
2019-05-03T23:35:39.478Z,100252.12
2019-05-03T23:40:44.746Z,100253.10
2019-05-03T23:45:48.857Z,100249.93
2019-05-03T23:50:55.149Z,100240.63
2019-05-03T23:55:59.495Z,100247.10
